Time;durP1;ratioP1;P1;durP2;ratioP2;P2;SDS_P1;SDS_P2;PMS_P1;PMS_P2;Temp;Humidity;BMP_temperature;BMP_pressure;BME280_temperature;BME280_humidity;BME280_pressure;Samples;Min_cycle;Max_cycle;Signal;HPM_P1;HPM_P2
2022/12/26 13:31:41;;;;;;;7.25;5.20;;;10.20;99.90;;;;;;7594031;19;20979;-76
2022/12/26 13:34:16;;;;;;;8.98;5.53;;;10.00;99.90;;;;;;7582907;19;20010;-75
2022/12/26 13:36:51;;;;;;;9.60;5.53;;;10.00;99.90;;;;;;7619565;19;20570;-76
2022/12/26 13:39:26;;;;;;;12.15;6.40;;;10.00;99.90;;;;;;7635097;19;20021;-76
2022/12/26 13:45:35;;;;;;;14.27;6.65;;;10.00;99.90;;;;;;7604927;19;20006;-76
2022/12/26 13:48:16;;;;;;;15.40;8.30;;;10.00;99.90;;;;;;7610629;19;20799;-76
2022/12/26 13:50:53;;;;;;;12.65;7.10;;;10.10;99.90;;;;;;7625780;19;20007;-75
2022/12/26 13:53:31;;;;;;;19.73;10.27;;;10.00;99.90;;;;;;7620454;19;20043;-76
2022/12/26 13:56:17;;;;;;;30.13;14.93;;;10.00;99.90;;;;;;7606201;19;20518;-76
2022/12/26 13:59:11;;;;;;;23.67;13.45;;;10.00;99.90;;;;;;7621394;19;20014;-75
2022/12/26 14:01:56;;;;;;;12.82;7.65;;;10.00;99.90;;;;;;7610972;19;20014;-76
2022/12/26 14:04:53;;;;;;;9.80;6.00;;;10.00;99.90;;;;;;7588653;19;20014;-77
2022/12/26 14:07:41;;;;;;;9.30;6.00;;;9.90;99.90;;;;;;7613575;19;20018;-77
2022/12/26 14:10:29;;;;;;;12.63;5.95;;;9.90;99.90;;;;;;7600837;19;20018;-75
2022/12/26 14:13:15;;;;;;;8.90;5.13;;;9.90;99.90;;;;;;7608907;19;21155;-76
2022/12/26 14:16:35;;;;;;;10.05;5.72;;;9.90;99.90;;;;;;7611166;19;21271;-75
2022/12/26 14:19:34;;;;;;;8.70;5.00;;;9.90;99.90;;;;;;7578204;19;20107;-75
2022/12/26 14:22:17;;;;;;;12.30;5.25;;;9.80;99.90;;;;;;7595508;19;20018;-75
2022/12/26 14:25:09;;;;;;;10.43;6.10;;;9.80;99.90;;;;;;7600099;19;20017;-75
2022/12/26 14:28:14;;;;;;;11.48;5.95;;;9.80;99.90;;;;;;7601674;19;20581;-76
2022/12/26 14:31:04;;;;;;;12.88;7.00;;;9.70;99.90;;;;;;7603276;19;20026;-74
2022/12/26 14:34:12;;;;;;;11.85;6.38;;;9.70;99.90;;;;;;7605244;19;20015;-77
2022/12/26 14:36:55;;;;;;;10.95;6.88;;;9.60;99.90;;;;;;7600723;19;20029;-74
2022/12/26 14:39:45;;;;;;;14.00;7.38;;;9.60;99.90;;;;;;7623095;19;20418;-74
2022/12/26 14:45:27;;;;;;;10.02;6.43;;;9.50;99.90;;;;;;7567633;19;20026;-75
2022/12/26 14:48:00;;;;;;;11.65;6.53;;;9.50;99.90;;;;;;7576880;19;20018;-75
2022/12/26 14:50:39;;;;;;;16.23;7.90;;;9.40;99.90;;;;;;7582502;19;20014;-76
2022/12/26 14:53:23;;;;;;;13.05;7.45;;;9.40;99.90;;;;;;7558129;19;20010;-75
2022/12/26 14:55:55;;;;;;;9.98;5.65;;;9.30;99.90;;;;;;7584749;19;20115;-77
2022/12/26 14:58:30;;;;;;;10.48;5.90;;;9.30;99.90;;;;;;7591326;19;20014;-76
2022/12/26 15:01:08;;;;;;;10.07;5.90;;;9.30;99.90;;;;;;7596585;19;20026;-76
2022/12/26 15:03:49;;;;;;;13.05;6.20;;;9.20;99.90;;;;;;7593702;19;20632;-74
2022/12/26 15:06:52;;;;;;;10.15;5.75;;;9.10;99.90;;;;;;7600374;19;20639;-74
2022/12/26 15:09:48;;;;;;;9.40;5.30;;;9.10;99.90;;;;;;7586605;19;20390;-75
2022/12/26 15:12:48;;;;;;;11.40;6.00;;;9.00;99.90;;;;;;7570715;19;20014;-75
2022/12/26 15:15:41;;;;;;;11.52;6.95;;;9.00;99.90;;;;;;7586424;19;26095;-75
2022/12/26 15:18:22;;;;;;;10.63;5.93;;;9.00;99.90;;;;;;7568885;19;20014;-75
2022/12/26 15:21:32;;;;;;;10.35;6.05;;;9.10;99.90;;;;;;7560729;19;20030;-75
2022/12/26 15:24:37;;;;;;;11.60;7.22;;;9.10;99.90;;;;;;7538861;19;20015;-74
2022/12/26 15:28:00;;;;;;;10.65;6.55;;;9.10;99.90;;;;;;7590592;19;20006;-76
2022/12/26 15:30:51;;;;;;;9.73;4.60;;;9.10;99.90;;;;;;7578217;19;21348;-75
2022/12/26 15:33:32;;;;;;;6.55;4.00;;;9.10;99.90;;;;;;7573961;19;20082;-75
2022/12/26 15:36:43;;;;;;;6.63;4.18;;;9.10;99.90;;;;;;7580850;19;20341;-75
2022/12/26 15:39:28;;;;;;;6.18;3.97;;;9.00;99.90;;;;;;7559815;19;20064;-76
2022/12/26 15:42:46;;;;;;;6.90;4.70;;;9.10;99.90;;;;;;7554493;19;21082;-75
2022/12/26 15:46:08;;;;;;;7.28;4.72;;;9.00;99.90;;;;;;7555308;19;21654;-76
2022/12/26 15:49:01;;;;;;;11.57;6.68;;;8.90;99.90;;;;;;7558332;19;21888;-77
2022/12/26 15:51:46;;;;;;;8.40;4.63;;;8.80;99.90;;;;;;7535151;19;20023;-76
2022/12/26 15:55:00;;;;;;;7.40;4.65;;;8.80;99.90;;;;;;7477197;19;20014;-77
2022/12/26 15:57:52;;;;;;;5.57;3.20;;;8.80;99.90;;;;;;7513117;19;20539;-75
2022/12/26 16:00:35;;;;;;;3.55;2.20;;;8.80;99.90;;;;;;7555557;19;20625;-74
2022/12/26 16:03:36;;;;;;;3.90;2.30;;;8.80;99.90;;;;;;7556614;19;20014;-76
2022/12/26 16:06:36;;;;;;;4.03;2.10;;;8.80;99.90;;;;;;7565611;19;20015;-76
2022/12/26 16:09:35;;;;;;;4.78;2.55;;;8.60;99.90;;;;;;7566343;19;20034;-76
2022/12/26 16:12:24;;;;;;;3.28;2.15;;;8.60;99.90;;;;;;7609820;19;20053;-76
2022/12/26 16:15:13;;;;;;;5.97;1.73;;;8.40;99.90;;;;;;7579357;19;20016;-77
2022/12/26 16:17:47;;;;;;;2.67;1.95;;;8.40;99.90;;;;;;7581697;19;20018;-75
2022/12/26 16:23:16;;;;;;;1.85;1.55;;;8.30;99.90;;;;;;7587909;19;20086;-75
2022/12/26 16:25:55;;;;;;;2.67;1.88;;;8.40;99.90;;;;;;7595442;19;20007;-75
2022/12/26 16:28:33;;;;;;;3.95;2.40;;;8.60;99.90;;;;;;7575531;19;20010;-76
2022/12/26 16:31:06;;;;;;;6.30;3.80;;;8.50;99.90;;;;;;7571966;19;20022;-77
2022/12/26 16:33:40;;;;;;;7.10;2.83;;;8.40;99.90;;;;;;7574123;19;20574;-76
2022/12/26 16:36:27;;;;;;;6.38;3.30;;;8.30;99.90;;;;;;7580484;19;20052;-76
2022/12/26 16:38:59;;;;;;;5.80;3.15;;;8.30;99.90;;;;;;7576777;19;20014;-77
2022/12/26 16:41:31;;;;;;;2.00;1.40;;;8.40;99.90;;;;;;7579196;19;20015;-77
2022/12/26 16:44:32;;;;;;;2.53;1.70;;;8.40;99.90;;;;;;7570323;19;20024;-77
2022/12/26 16:47:10;;;;;;;2.15;1.40;;;8.40;99.90;;;;;;7566621;19;20044;-78
2022/12/26 16:49:44;;;;;;;2.90;1.40;;;8.40;99.90;;;;;;7558600;19;20855;-77
2022/12/26 16:52:29;;;;;;;2.90;1.55;;;8.30;99.90;;;;;;7569582;19;21104;-77
2022/12/26 16:55:21;;;;;;;1.35;0.93;;;8.30;99.90;;;;;;7585712;19;20451;-77
2022/12/26 16:57:55;;;;;;;4.18;3.05;;;8.30;99.90;;;;;;7577678;19;20010;-78
2022/12/26 17:00:28;;;;;;;5.93;1.80;;;8.20;99.90;;;;;;7555557;19;20599;-77
2022/12/26 17:03:09;;;;;;;2.67;2.10;;;8.20;99.90;;;;;;7587589;19;20038;-79
2022/12/26 17:05:45;;;;;;;4.85;2.78;;;8.20;99.90;;;;;;7584733;19;20074;-78
2022/12/26 17:08:18;;;;;;;4.05;2.65;;;8.20;99.90;;;;;;7579354;19;20014;-79
2022/12/26 17:10:50;;;;;;;6.53;2.97;;;8.10;99.90;;;;;;7571435;19;20014;-79
2022/12/26 17:13:25;;;;;;;7.90;3.85;;;8.00;99.90;;;;;;7574168;19;20495;-79
2022/12/26 17:16:00;;;;;;;4.43;3.17;;;8.10;99.90;;;;;;7574682;19;21466;-77
2022/12/26 17:18:41;;;;;;;5.45;3.22;;;8.10;99.90;;;;;;7550534;19;20020;-76
2022/12/26 17:21:14;;;;;;;7.07;3.20;;;8.00;99.90;;;;;;7574095;19;21564;-77
2022/12/26 17:24:22;;;;;;;3.67;2.53;;;8.00;99.90;;;;;;7561637;19;20018;-77
2022/12/26 17:27:08;;;;;;;4.85;2.40;;;8.00;99.90;;;;;;7556064;19;21603;-77
2022/12/26 17:30:18;;;;;;;6.60;2.63;;;8.10;99.90;;;;;;7593339;19;20362;-77
2022/12/26 17:32:50;;;;;;;3.22;2.10;;;8.10;99.90;;;;;;7593555;19;20018;-78
2022/12/26 17:35:24;;;;;;;3.60;2.35;;;8.10;99.90;;;;;;7589488;19;20550;-77
2022/12/26 17:38:02;;;;;;;5.15;2.83;;;8.00;99.90;;;;;;7592019;19;20011;-78
2022/12/26 17:40:39;;;;;;;3.45;2.15;;;8.10;99.90;;;;;;7589372;19;20031;-77
2022/12/26 17:43:11;;;;;;;4.95;3.00;;;8.10;99.90;;;;;;7574892;19;20014;-78
2022/12/26 17:45:44;;;;;;;3.60;2.15;;;8.10;99.90;;;;;;7595889;19;20738;-78
2022/12/26 17:48:18;;;;;;;3.63;2.25;;;8.10;99.90;;;;;;7585832;19;20066;-80
2022/12/26 17:50:57;;;;;;;3.83;2.17;;;8.00;99.90;;;;;;7596336;19;20017;-78
2022/12/26 17:53:33;;;;;;;3.33;1.77;;;8.10;99.90;;;;;;7598092;19;20026;-80
2022/12/26 17:56:11;;;;;;;2.38;2.13;;;8.20;99.90;;;;;;7606424;19;20090;-79
2022/12/26 17:58:47;;;;;;;2.38;1.98;;;8.20;99.90;;;;;;7597948;19;20021;-77
2022/12/26 18:01:22;;;;;;;2.30;1.63;;;8.20;99.90;;;;;;7596382;19;20662;-80
2022/12/26 18:04:01;;;;;;;1.88;1.38;;;8.20;99.90;;;;;;7603072;19;20616;-79
2022/12/26 18:06:33;;;;;;;3.90;1.67;;;8.20;99.90;;;;;;7592952;19;20026;-76
2022/12/26 18:09:05;;;;;;;2.22;1.73;;;8.30;99.90;;;;;;7600876;19;20021;-77
2022/12/26 18:11:37;;;;;;;2.70;1.73;;;8.30;99.90;;;;;;7595344;19;20011;-79
2022/12/26 18:14:12;;;;;;;2.47;1.50;;;8.30;99.90;;;;;;7596734;19;20023;-81
2022/12/26 18:16:45;;;;;;;3.08;2.00;;;8.30;99.90;;;;;;7592694;19;20046;-78
2022/12/26 18:19:18;;;;;;;2.92;1.35;;;8.30;99.90;;;;;;7599817;19;20069;-79
2022/12/26 18:21:51;;;;;;;2.78;1.60;;;8.20;99.90;;;;;;7604436;19;20543;-81
2022/12/26 18:24:23;;;;;;;2.97;1.73;;;8.30;99.90;;;;;;7598109;19;20018;-78
2022/12/26 18:26:55;;;;;;;4.10;1.80;;;8.20;99.90;;;;;;7591100;19;20039;-80
2022/12/26 18:29:27;;;;;;;2.60;1.88;;;8.30;99.90;;;;;;7607214;19;20039;-79
2022/12/26 18:32:00;;;;;;;1.80;1.35;;;8.20;99.90;;;;;;7599347;19;20019;-80
2022/12/26 18:34:33;;;;;;;2.42;1.80;;;8.20;99.90;;;;;;7592927;19;20014;-80
2022/12/26 18:37:06;;;;;;;2.53;1.90;;;8.30;99.90;;;;;;7581328;19;20783;-77
2022/12/26 18:39:38;;;;;;;2.55;1.95;;;8.20;99.90;;;;;;7571923;19;20638;-77
2022/12/26 18:42:12;;;;;;;2.80;1.88;;;8.30;99.90;;;;;;7580205;19;20007;-78
2022/12/26 18:44:45;;;;;;;3.80;1.40;;;8.30;99.90;;;;;;7586769;19;20018;-78
2022/12/26 18:47:23;;;;;;;5.10;2.10;;;8.20;99.90;;;;;;7572188;19;20106;-78
2022/12/26 18:49:55;;;;;;;2.30;1.42;;;8.30;99.90;;;;;;7597432;19;20014;-79
2022/12/26 18:52:27;;;;;;;3.55;2.47;;;8.20;99.90;;;;;;7588324;19;20040;-77
2022/12/26 18:54:59;;;;;;;2.55;2.35;;;8.20;99.90;;;;;;7589305;19;20014;-78
2022/12/26 18:57:31;;;;;;;2.92;1.85;;;8.20;99.90;;;;;;7595112;19;20010;-79
2022/12/26 19:00:07;;;;;;;2.42;1.55;;;8.30;99.90;;;;;;7578548;19;20106;-79
2022/12/26 19:02:39;;;;;;;1.67;1.27;;;8.20;99.90;;;;;;7591046;19;20028;-80
2022/12/26 19:05:19;;;;;;;1.55;1.38;;;8.20;99.90;;;;;;7568477;19;20018;-78
2022/12/26 19:07:52;;;;;;;1.55;1.20;;;8.20;99.90;;;;;;7584866;19;20026;-79
2022/12/26 19:10:27;;;;;;;2.00;1.30;;;8.30;99.90;;;;;;7587638;19;20463;-78
2022/12/26 19:13:03;;;;;;;2.45;1.42;;;8.20;99.90;;;;;;7590710;19;20354;-77
2022/12/26 19:15:38;;;;;;;1.88;1.30;;;8.30;99.90;;;;;;7597600;19;20452;-79
2022/12/26 19:18:11;;;;;;;5.88;1.60;;;8.30;99.90;;;;;;7593959;19;20022;-77
2022/12/26 19:20:46;;;;;;;3.92;1.25;;;8.30;99.90;;;;;;7570098;19;20376;-78
2022/12/26 19:23:18;;;;;;;5.10;1.70;;;8.30;99.90;;;;;;7590564;19;20014;-77
2022/12/26 19:25:50;;;;;;;2.90;1.70;;;8.30;99.90;;;;;;7583641;19;20022;-78
2022/12/26 19:28:22;;;;;;;4.03;2.20;;;8.30;99.90;;;;;;7593389;19;20070;-79
2022/12/26 19:30:55;;;;;;;2.00;1.55;;;8.30;99.90;;;;;;7568481;19;20014;-79
2022/12/26 19:33:27;;;;;;;3.63;1.38;;;8.30;99.90;;;;;;7581993;19;20037;-80
2022/12/26 19:35:59;;;;;;;1.88;1.08;;;8.30;99.90;;;;;;7560498;19;20530;-79
2022/12/26 19:38:33;;;;;;;1.60;1.25;;;8.20;99.90;;;;;;7590247;19;20014;-78
2022/12/26 19:41:09;;;;;;;2.13;1.27;;;8.30;99.90;;;;;;7595328;19;20014;-81
2022/12/26 19:43:57;;;;;;;2.15;1.25;;;8.30;99.90;;;;;;7610845;19;20050;-78
2022/12/26 19:46:33;;;;;;;2.33;1.45;;;8.30;99.90;;;;;;7611203;19;20010;-77
2022/12/26 19:49:16;;;;;;;4.95;2.10;;;8.30;99.90;;;;;;7611746;19;20065;-77
2022/12/26 19:51:54;;;;;;;4.15;2.17;;;8.30;99.90;;;;;;7073630;19;9999921;-76
2022/12/26 19:55:33;;;;;;;2.15;1.60;;;8.30;99.90;;;;;;7607676;19;20707;-73
2022/12/26 19:58:05;;;;;;;2.45;1.60;;;8.30;99.90;;;;;;7605197;19;21017;-73
2022/12/26 20:00:37;;;;;;;2.95;1.60;;;8.20;99.90;;;;;;7625183;19;20010;-73
2022/12/26 20:03:10;;;;;;;2.30;1.67;;;8.10;99.90;;;;;;7615132;19;20007;-73
2022/12/26 20:05:42;;;;;;;2.70;1.70;;;8.20;99.90;;;;;;7608986;19;20018;-73
2022/12/26 20:08:14;;;;;;;1.65;1.33;;;8.30;99.90;;;;;;7629817;19;20980;-73
2022/12/26 20:10:47;;;;;;;2.63;1.48;;;8.40;99.90;;;;;;7633610;19;20610;-73
2022/12/26 20:13:19;;;;;;;3.47;1.50;;;8.30;99.90;;;;;;7622820;19;20636;-73
2022/12/26 20:15:51;;;;;;;3.20;1.50;;;8.30;99.90;;;;;;7627453;19;20027;-73
2022/12/26 20:18:23;;;;;;;1.70;1.13;;;8.20;99.90;;;;;;7620707;19;20014;-73
2022/12/26 20:20:55;;;;;;;1.73;1.20;;;8.30;99.90;;;;;;7608809;19;21374;-73
2022/12/26 20:23:27;;;;;;;1.33;0.95;;;8.40;99.90;;;;;;7617479;19;20434;-75
2022/12/26 20:26:05;;;;;;;1.45;1.15;;;8.40;99.90;;;;;;7610319;19;20025;-73
2022/12/26 20:28:38;;;;;;;1.73;1.00;;;8.40;99.90;;;;;;7611620;19;22928;-74
2022/12/26 20:31:13;;;;;;;1.35;1.10;;;8.50;99.90;;;;;;7610099;19;20024;-75
2022/12/26 20:33:47;;;;;;;0.80;0.80;;;8.60;99.90;;;;;;7633610;19;20026;-74
2022/12/26 20:36:26;;;;;;;1.00;1.00;;;8.60;99.90;;;;;;7624919;19;20024;-72
2022/12/26 20:39:00;;;;;;;1.40;0.80;;;8.60;99.90;;;;;;7612627;19;20014;-74
2022/12/26 20:41:33;;;;;;;1.65;1.00;;;8.70;99.90;;;;;;7598556;19;20085;-74
2022/12/26 20:44:05;;;;;;;1.53;0.63;;;8.70;99.90;;;;;;7626860;19;20028;-74
2022/12/26 20:46:39;;;;;;;1.23;0.60;;;8.70;99.90;;;;;;7613529;19;20014;-74
2022/12/26 20:49:12;;;;;;;1.17;0.73;;;8.70;99.90;;;;;;7629309;19;20024;-74
2022/12/26 20:51:44;;;;;;;0.60;0.60;;;8.70;99.90;;;;;;7625130;19;20018;-74
2022/12/26 20:54:16;;;;;;;0.60;0.60;;;8.60;99.90;;;;;;7615413;19;20094;-74
2022/12/26 20:56:48;;;;;;;1.30;0.80;;;8.70;99.90;;;;;;7629826;19;20025;-74
2022/12/26 20:59:21;;;;;;;1.73;0.70;;;8.60;99.90;;;;;;7604736;19;20044;-73
